createdAt,value
2023-01-17T00:02:03.461Z,2.90
2023-01-17T00:04:50.588Z,2.90
2023-01-17T00:07:38.410Z,3.10
2023-01-17T00:10:11.664Z,3.10
2023-01-17T00:12:40.028Z,2.90
2023-01-17T00:15:09.636Z,3.00
2023-01-17T00:17:38.052Z,2.90
2023-01-17T00:20:26.955Z,2.90
2023-01-17T00:23:15.460Z,2.90
2023-01-17T00:26:01.871Z,2.90
2023-01-17T00:28:30.044Z,3.00
2023-01-17T00:30:59.803Z,2.90
2023-01-17T00:33:27.154Z,2.90
2023-01-17T00:35:57.811Z,2.90
2023-01-17T00:38:29.105Z,2.90
2023-01-17T00:41:02.080Z,2.90
2023-01-17T00:43:48.832Z,2.90
2023-01-17T00:46:34.434Z,2.90
2023-01-17T00:49:20.594Z,2.90
2023-01-17T00:52:08.319Z,2.90
2023-01-17T00:54:53.670Z,2.90
2023-01-17T00:57:39.169Z,2.90
2023-01-17T01:00:26.181Z,2.90
2023-01-17T01:03:11.446Z,2.90
2023-01-17T01:05:58.874Z,3.00
2023-01-17T01:08:47.668Z,2.80
2023-01-17T01:11:35.976Z,2.80
2023-01-17T01:14:22.371Z,2.70
2023-01-17T01:17:08.048Z,2.70
2023-01-17T01:19:54.171Z,2.60
2023-01-17T01:22:39.746Z,2.60
2023-01-17T01:25:28.082Z,2.90
2023-01-17T01:28:22.281Z,2.60
2023-01-17T01:31:07.655Z,2.70
2023-01-17T01:33:36.073Z,3.00
2023-01-17T01:36:04.043Z,2.60
2023-01-17T01:38:33.278Z,2.60
2023-01-17T01:41:02.734Z,2.60
2023-01-17T01:43:49.255Z,2.60
2023-01-17T01:46:21.129Z,2.60
2023-01-17T01:48:53.173Z,2.50
2023-01-17T01:51:24.842Z,2.50
2023-01-17T01:54:01.437Z,2.50
2023-01-17T01:56:32.742Z,2.50
2023-01-17T01:59:04.229Z,2.50
2023-01-17T02:01:37.219Z,2.50
2023-01-17T02:04:09.698Z,2.50
2023-01-17T02:06:40.946Z,2.50
2023-01-17T02:09:12.087Z,2.60
2023-01-17T02:11:42.301Z,2.60
2023-01-17T02:14:15.597Z,2.60
2023-01-17T02:16:57.387Z,2.60
2023-01-17T02:20:16.128Z,2.70
2023-01-17T02:23:16.796Z,2.70
2023-01-17T02:26:05.468Z,2.80
2023-01-17T02:28:47.760Z,2.80
2023-01-17T02:31:22.262Z,2.80
2023-01-17T02:33:56.988Z,3.80
2023-01-17T02:36:30.816Z,2.80
2023-01-17T02:39:05.161Z,2.80
2023-01-17T02:41:38.576Z,2.80
2023-01-17T02:44:10.147Z,2.80
2023-01-17T02:46:46.905Z,2.80
2023-01-17T02:49:15.745Z,2.80
2023-01-17T02:52:08.865Z,2.60
2023-01-17T02:54:59.795Z,2.70
2023-01-17T02:57:49.315Z,2.70
2023-01-17T03:00:25.297Z,2.60
2023-01-17T03:03:03.224Z,2.60
2023-01-17T03:05:37.968Z,2.60
2023-01-17T03:08:09.119Z,2.40
2023-01-17T03:10:39.215Z,2.40
2023-01-17T03:13:07.263Z,2.40
2023-01-17T03:15:36.708Z,2.30
2023-01-17T03:18:10.388Z,2.30
2023-01-17T03:20:40.947Z,2.20
2023-01-17T03:23:09.824Z,2.20
2023-01-17T03:25:38.858Z,2.10
2023-01-17T03:28:07.118Z,2.00
2023-01-17T03:30:35.591Z,1.90
2023-01-17T03:33:04.992Z,1.90
2023-01-17T03:35:34.863Z,1.90
2023-01-17T03:38:03.290Z,1.90
2023-01-17T03:40:34.222Z,1.90
2023-01-17T03:43:02.168Z,1.90
2023-01-17T03:45:31.798Z,1.90
2023-01-17T03:48:01.587Z,1.90
2023-01-17T03:50:32.366Z,1.90
2023-01-17T03:53:06.256Z,1.80
2023-01-17T03:55:34.626Z,1.70
2023-01-17T03:58:02.640Z,1.70
2023-01-17T04:00:30.922Z,1.70
2023-01-17T04:03:01.569Z,1.60
2023-01-17T04:05:32.273Z,1.60
2023-01-17T04:08:00.326Z,1.60
2023-01-17T04:10:29.818Z,1.60
2023-01-17T04:13:00.196Z,1.70
2023-01-17T04:15:28.609Z,1.80
2023-01-17T04:17:59.155Z,1.80
2023-01-17T04:20:33.015Z,1.90
2023-01-17T04:23:01.289Z,1.90
2023-01-17T04:25:31.489Z,2.00
2023-01-17T04:28:03.701Z,2.00
2023-01-17T04:30:35.189Z,2.10
2023-01-17T04:33:03.955Z,2.40
2023-01-17T04:35:34.367Z,2.20
2023-01-17T04:38:02.392Z,2.20
2023-01-17T04:40:32.289Z,2.20
2023-01-17T04:43:00.735Z,2.10
2023-01-17T04:45:29.273Z,2.10
2023-01-17T04:47:59.693Z,2.00
2023-01-17T04:50:28.253Z,2.00
2023-01-17T04:52:56.326Z,1.90
2023-01-17T04:55:24.658Z,1.90
2023-01-17T04:57:59.452Z,1.80
2023-01-17T05:00:28.012Z,1.80
2023-01-17T05:02:56.118Z,2.00
2023-01-17T05:05:24.283Z,1.70
2023-01-17T05:07:56.431Z,1.70
2023-01-17T05:10:27.022Z,1.60
2023-01-17T05:13:00.848Z,1.80
2023-01-17T05:15:29.167Z,1.90
2023-01-17T05:17:58.602Z,1.90
2023-01-17T05:20:27.672Z,1.90
2023-01-17T05:22:58.784Z,1.90
2023-01-17T05:25:30.162Z,2.00
2023-01-17T05:28:00.936Z,2.00
2023-01-17T05:30:30.658Z,1.90
2023-01-17T05:32:59.576Z,2.00
2023-01-17T05:35:29.396Z,2.00
2023-01-17T05:38:00.439Z,2.10
2023-01-17T05:40:30.925Z,2.00
2023-01-17T05:43:04.136Z,2.10
2023-01-17T05:45:34.481Z,2.20
2023-01-17T05:48:09.667Z,2.20
2023-01-17T05:50:39.204Z,2.30
2023-01-17T05:53:08.992Z,2.30
2023-01-17T05:55:37.655Z,2.40
2023-01-17T05:58:08.962Z,2.40
2023-01-17T06:00:38.033Z,2.40
2023-01-17T06:03:06.976Z,2.40
2023-01-17T06:05:35.194Z,2.40
2023-01-17T06:08:03.306Z,2.30
2023-01-17T06:10:31.542Z,2.30
2023-01-17T06:13:04.861Z,2.30
2023-01-17T06:15:36.497Z,2.30
2023-01-17T06:18:08.351Z,2.30
2023-01-17T06:20:36.401Z,2.40
2023-01-17T06:23:05.647Z,2.40
2023-01-17T06:25:38.135Z,2.50
2023-01-17T06:28:06.486Z,2.50
2023-01-17T06:30:36.736Z,2.50
2023-01-17T06:33:05.573Z,2.60
2023-01-17T06:35:33.717Z,2.60
2023-01-17T06:38:01.675Z,2.70
2023-01-17T06:40:31.206Z,2.70
2023-01-17T06:43:02.005Z,2.80
2023-01-17T06:45:30.603Z,3.80
2023-01-17T06:48:01.146Z,3.20
2023-01-17T06:50:29.151Z,2.80
2023-01-17T06:52:58.329Z,2.90
2023-01-17T06:55:28.670Z,2.80
2023-01-17T06:57:57.143Z,2.90
2023-01-17T07:00:25.480Z,2.80
2023-01-17T07:02:54.184Z,2.80
2023-01-17T07:05:23.537Z,2.70
2023-01-17T07:07:51.564Z,2.60
2023-01-17T07:10:19.769Z,2.50
2023-01-17T07:12:48.071Z,2.40
2023-01-17T07:15:16.440Z,2.30
2023-01-17T07:17:44.582Z,2.20
2023-01-17T07:20:13.686Z,2.10
2023-01-17T07:22:46.018Z,1.90
2023-01-17T07:25:14.188Z,1.80
2023-01-17T07:27:42.226Z,1.70
2023-01-17T07:30:11.850Z,1.70
2023-01-17T07:32:39.880Z,1.60
2023-01-17T07:35:08.892Z,2.10
2023-01-17T07:37:36.922Z,1.50
2023-01-17T07:40:07.693Z,2.20
2023-01-17T07:42:35.765Z,1.50
2023-01-17T07:45:03.817Z,1.50
2023-01-17T07:47:34.189Z,1.50
2023-01-17T07:50:02.913Z,1.50
2023-01-17T07:52:31.430Z,2.00
2023-01-17T07:54:59.702Z,1.60
2023-01-17T07:57:29.878Z,1.60
2023-01-17T07:59:58.218Z,1.70
2023-01-17T08:02:26.248Z,2.60
2023-01-17T08:04:54.319Z,1.80
2023-01-17T08:07:22.368Z,1.80
2023-01-17T08:09:50.559Z,1.90
2023-01-17T08:12:18.889Z,1.90
2023-01-17T08:14:49.556Z,1.90
2023-01-17T08:17:22.508Z,1.90
2023-01-17T08:19:52.516Z,2.50
2023-01-17T08:22:20.659Z,2.00
2023-01-17T08:24:48.914Z,2.10
2023-01-17T08:27:17.042Z,2.10
2023-01-17T08:29:48.224Z,2.50
2023-01-17T08:32:17.982Z,2.30
2023-01-17T08:34:46.050Z,2.40
2023-01-17T08:37:14.348Z,2.50
2023-01-17T08:39:42.478Z,2.60
2023-01-17T08:42:10.525Z,2.70
2023-01-17T08:44:39.721Z,2.80
2023-01-17T08:47:08.119Z,2.80
2023-01-17T08:49:37.542Z,2.90
2023-01-17T08:52:06.304Z,3.00
2023-01-17T08:54:34.559Z,3.00
2023-01-17T08:57:03.816Z,3.10
2023-01-17T08:59:32.111Z,3.40
2023-01-17T09:02:01.257Z,3.10
2023-01-17T09:04:32.073Z,3.20
2023-01-17T09:07:02.604Z,3.50
2023-01-17T09:09:30.681Z,3.20
2023-01-17T09:11:58.737Z,3.30
2023-01-17T09:14:26.808Z,3.40
2023-01-17T09:16:54.892Z,4.00
2023-01-17T09:19:22.965Z,3.50
2023-01-17T09:21:51.022Z,3.60
2023-01-17T09:24:20.473Z,4.30
2023-01-17T09:26:48.545Z,4.20
2023-01-17T09:29:17.918Z,3.70
2023-01-17T09:31:47.159Z,3.70
2023-01-17T09:34:15.652Z,3.70
2023-01-17T09:36:43.732Z,4.00
2023-01-17T09:39:14.968Z,3.80
2023-01-17T09:41:52.398Z,3.80
2023-01-17T09:44:26.907Z,4.20
2023-01-17T09:46:57.649Z,3.90
2023-01-17T09:49:36.511Z,4.20
2023-01-17T09:52:05.939Z,4.20
2023-01-17T09:54:36.611Z,3.90
2023-01-17T09:57:14.564Z,3.90
2023-01-17T10:00:02.887Z,3.90
2023-01-17T10:02:50.582Z,4.30
2023-01-17T10:05:44.141Z,4.40
2023-01-17T10:08:25.943Z,3.90
2023-01-17T10:11:07.662Z,3.90
2023-01-17T10:13:42.681Z,3.90
2023-01-17T10:16:23.819Z,4.00
2023-01-17T10:19:15.518Z,4.00
2023-01-17T10:22:02.072Z,4.00
2023-01-17T10:25:07.870Z,4.00
2023-01-17T10:27:39.815Z,3.90
2023-01-17T10:30:18.907Z,3.90
2023-01-17T10:32:52.206Z,3.90
2023-01-17T10:35:24.851Z,3.90
2023-01-17T10:37:56.940Z,3.90
2023-01-17T10:40:32.496Z,3.90
2023-01-17T10:43:05.907Z,3.90
2023-01-17T10:45:41.352Z,3.90
2023-01-17T10:48:17.558Z,3.90
2023-01-17T10:50:57.136Z,3.90
2023-01-17T10:53:41.650Z,3.90
2023-01-17T10:56:14.441Z,4.30
2023-01-17T10:58:43.583Z,4.00
2023-01-17T11:01:19.037Z,4.00
2023-01-17T11:03:51.765Z,4.10
2023-01-17T11:06:21.988Z,4.10
2023-01-17T11:08:56.411Z,4.10
2023-01-17T11:11:30.079Z,4.20
2023-01-17T11:14:00.744Z,4.10
2023-01-17T11:16:32.368Z,4.20
2023-01-17T11:19:09.697Z,4.50
2023-01-17T11:21:40.160Z,4.10
2023-01-17T11:24:17.993Z,4.10
2023-01-17T11:26:49.450Z,4.00
2023-01-17T11:29:31.233Z,4.00
2023-01-17T11:32:32.070Z,4.10
2023-01-17T11:35:18.186Z,4.10
2023-01-17T11:37:52.046Z,4.10
2023-01-17T11:40:28.526Z,4.10
2023-01-17T11:43:06.622Z,4.10
2023-01-17T11:45:35.863Z,4.20
2023-01-17T11:48:25.132Z,4.20
2023-01-17T11:50:57.808Z,4.30
2023-01-17T11:53:29.083Z,4.40
2023-01-17T11:56:00.836Z,4.40
2023-01-17T11:58:30.120Z,4.40
2023-01-17T12:01:05.731Z,4.90
2023-01-17T12:04:08.228Z,4.40
2023-01-17T12:06:57.266Z,4.40
2023-01-17T12:09:36.510Z,4.40
2023-01-17T12:12:31.811Z,4.40
2023-01-17T12:15:10.182Z,4.50
2023-01-17T12:17:59.045Z,4.50
2023-01-17T12:20:35.041Z,4.50
2023-01-17T12:23:27.055Z,4.70
2023-01-17T12:26:19.424Z,4.50
2023-01-17T12:29:23.534Z,4.60
2023-01-17T12:32:03.683Z,4.60
2023-01-17T12:34:38.784Z,4.70
2023-01-17T12:37:20.300Z,4.60
2023-01-17T12:39:58.743Z,4.70
2023-01-17T12:42:31.944Z,4.80
2023-01-17T12:45:05.375Z,4.80
2023-01-17T12:47:36.462Z,4.80
2023-01-17T12:50:09.378Z,4.90
2023-01-17T12:52:50.892Z,4.80
2023-01-17T12:55:23.304Z,4.80
2023-01-17T12:57:58.191Z,5.00
2023-01-17T13:00:29.649Z,4.90
2023-01-17T13:03:05.566Z,4.90
2023-01-17T13:05:41.731Z,4.90
2023-01-17T13:08:21.880Z,4.90
2023-01-17T13:10:57.979Z,4.90
2023-01-17T13:13:27.995Z,4.90
2023-01-17T13:15:59.169Z,4.80
2023-01-17T13:18:29.777Z,4.80
2023-01-17T13:21:18.584Z,4.80
2023-01-17T13:24:12.431Z,4.70
2023-01-17T13:26:58.337Z,4.70
2023-01-17T13:29:36.166Z,4.60
2023-01-17T13:32:18.523Z,4.60
2023-01-17T13:35:21.946Z,4.50
2023-01-17T13:38:08.054Z,4.50
2023-01-17T13:40:47.471Z,4.50
2023-01-17T13:43:19.547Z,5.10
2023-01-17T13:45:53.853Z,4.50
2023-01-17T13:48:27.551Z,4.50
2023-01-17T13:50:57.135Z,4.50
2023-01-17T13:53:59.067Z,5.20
2023-01-17T13:56:36.156Z,4.50
2023-01-17T13:59:29.154Z,4.50
2023-01-17T14:01:57.556Z,4.80
2023-01-17T14:04:47.335Z,4.50
2023-01-17T14:07:26.341Z,4.50
2023-01-17T14:09:54.773Z,4.50
2023-01-17T14:12:32.581Z,4.50
2023-01-17T14:15:02.960Z,4.50
2023-01-17T14:17:48.022Z,4.40
2023-01-17T14:20:38.191Z,4.40
2023-01-17T14:23:31.935Z,4.40
2023-01-17T14:26:13.171Z,4.30
2023-01-17T14:28:42.624Z,4.30
2023-01-17T14:31:13.993Z,4.30
2023-01-17T14:33:42.736Z,4.20
2023-01-17T14:36:22.144Z,4.20
2023-01-17T14:38:50.218Z,4.20
2023-01-17T14:41:22.527Z,4.20
2023-01-17T14:43:53.003Z,4.10
2023-01-17T14:46:26.290Z,4.10
2023-01-17T14:49:01.352Z,4.90
2023-01-17T14:51:29.549Z,4.10
2023-01-17T14:53:59.270Z,4.10
2023-01-17T14:56:30.580Z,4.00
2023-01-17T14:59:14.315Z,4.10
2023-01-17T15:01:42.917Z,4.00
2023-01-17T15:04:24.848Z,4.00
2023-01-17T15:06:53.681Z,4.00
2023-01-17T15:09:24.859Z,4.20
2023-01-17T15:11:54.077Z,3.90
2023-01-17T15:14:27.264Z,3.90
2023-01-17T15:16:56.063Z,3.90
2023-01-17T15:19:24.358Z,3.90
2023-01-17T15:21:54.563Z,3.90
2023-01-17T15:24:26.297Z,3.90
2023-01-17T15:26:54.915Z,3.90
2023-01-17T15:29:29.277Z,3.90
2023-01-17T15:31:59.870Z,3.90
2023-01-17T15:34:29.887Z,3.90
2023-01-17T15:37:00.112Z,3.90
2023-01-17T15:39:31.452Z,3.90
2023-01-17T15:42:01.670Z,3.90
2023-01-17T15:44:47.487Z,3.90
2023-01-17T15:47:32.113Z,3.80
2023-01-17T15:50:02.287Z,3.80
2023-01-17T15:52:30.644Z,4.00
2023-01-17T15:55:13.530Z,3.80
2023-01-17T15:57:47.464Z,3.80
2023-01-17T16:00:26.399Z,3.70
2023-01-17T16:02:57.085Z,3.70
2023-01-17T16:05:42.085Z,3.70
2023-01-17T16:08:38.601Z,3.90
2023-01-17T16:11:09.828Z,3.70
2023-01-17T16:13:42.092Z,3.60
2023-01-17T16:16:22.192Z,3.60
2023-01-17T16:18:56.422Z,3.60
2023-01-17T16:21:26.580Z,3.60
2023-01-17T16:23:56.349Z,3.50
2023-01-17T16:26:25.209Z,3.50
2023-01-17T16:28:55.748Z,3.50
2023-01-17T16:31:25.254Z,3.40
2023-01-17T16:33:53.458Z,3.50
2023-01-17T16:36:23.011Z,3.30
2023-01-17T16:38:53.116Z,3.20
2023-01-17T16:41:22.041Z,3.20
2023-01-17T16:44:02.095Z,3.20
2023-01-17T16:46:32.168Z,3.10
2023-01-17T16:49:01.557Z,3.20
2023-01-17T16:51:29.666Z,3.50
2023-01-17T16:53:58.121Z,3.00
2023-01-17T16:56:26.108Z,3.00
2023-01-17T16:58:54.416Z,3.00
2023-01-17T17:01:22.793Z,2.90
2023-01-17T17:03:52.505Z,2.90
2023-01-17T17:06:20.712Z,2.90
2023-01-17T17:08:48.987Z,2.80
2023-01-17T17:11:19.186Z,2.80
2023-01-17T17:13:48.942Z,2.80
2023-01-17T17:16:18.818Z,2.70
2023-01-17T17:18:48.585Z,2.70
2023-01-17T17:21:17.967Z,2.60
2023-01-17T17:23:46.372Z,2.60
2023-01-17T17:26:14.417Z,2.60
2023-01-17T17:28:42.394Z,2.90
2023-01-17T17:31:11.467Z,2.50
2023-01-17T17:33:39.710Z,2.50
2023-01-17T17:36:10.018Z,2.50
2023-01-17T17:38:50.496Z,2.50
2023-01-17T17:41:20.073Z,2.50
2023-01-17T17:43:48.107Z,2.50
2023-01-17T17:46:16.391Z,2.40
2023-01-17T17:48:44.423Z,2.40
2023-01-17T17:51:23.323Z,2.40
2023-01-17T17:53:54.488Z,2.40
2023-01-17T17:56:23.099Z,2.40
2023-01-17T17:58:51.590Z,2.40
2023-01-17T18:01:22.636Z,2.50
2023-01-17T18:03:50.971Z,2.40
2023-01-17T18:06:19.425Z,2.30
2023-01-17T18:08:47.697Z,2.30
2023-01-17T18:11:19.383Z,2.30
2023-01-17T18:13:50.377Z,2.30
2023-01-17T18:16:21.012Z,2.30
2023-01-17T18:18:50.551Z,2.30
2023-01-17T18:21:23.518Z,2.30
2023-01-17T18:23:54.103Z,2.30
2023-01-17T18:26:25.486Z,2.30
2023-01-17T18:28:54.383Z,2.30
2023-01-17T18:31:25.025Z,2.30
2023-01-17T18:33:54.118Z,2.30
2023-01-17T18:36:23.298Z,2.30
2023-01-17T18:38:53.267Z,2.30
2023-01-17T18:41:24.616Z,2.30
2023-01-17T18:43:53.004Z,2.20
2023-01-17T18:46:21.793Z,2.20
2023-01-17T18:48:49.978Z,2.20
2023-01-17T18:51:19.535Z,2.30
2023-01-17T18:53:47.901Z,2.30
2023-01-17T18:56:18.840Z,2.30
2023-01-17T18:58:50.352Z,2.40
2023-01-17T19:01:20.470Z,2.30
2023-01-17T19:03:50.280Z,2.30
2023-01-17T19:06:20.698Z,2.30
2023-01-17T19:08:49.318Z,2.40
2023-01-17T19:11:17.351Z,2.40
2023-01-17T19:13:45.417Z,2.40
2023-01-17T19:16:17.441Z,2.40
2023-01-17T19:18:45.427Z,2.40
2023-01-17T19:21:16.131Z,2.70
2023-01-17T19:23:44.467Z,2.40
2023-01-17T19:26:14.113Z,2.50
2023-01-17T19:28:43.535Z,2.50
2023-01-17T19:31:15.207Z,2.50
2023-01-17T19:33:44.866Z,2.50
2023-01-17T19:36:17.018Z,2.40
2023-01-17T19:38:55.191Z,2.50
2023-01-17T19:41:31.218Z,2.30
2023-01-17T19:44:01.124Z,2.20
2023-01-17T19:46:31.167Z,2.70
2023-01-17T19:48:59.681Z,2.20
2023-01-17T19:51:28.788Z,2.10
2023-01-17T19:53:59.106Z,2.10
2023-01-17T19:56:28.729Z,2.10
2023-01-17T19:59:00.685Z,2.10
2023-01-17T20:01:33.335Z,2.10
2023-01-17T20:04:03.268Z,2.10
2023-01-17T20:06:34.037Z,2.10
2023-01-17T20:09:03.072Z,2.10
2023-01-17T20:11:31.035Z,2.10
2023-01-17T20:14:00.149Z,2.00
2023-01-17T20:16:31.939Z,2.10
2023-01-17T20:19:02.321Z,2.00
2023-01-17T20:21:31.662Z,2.00
2023-01-17T20:24:03.150Z,2.00
2023-01-17T20:26:36.055Z,2.00
2023-01-17T20:29:10.618Z,2.00
2023-01-17T20:31:41.743Z,2.00
2023-01-17T20:34:11.731Z,2.00
2023-01-17T20:36:41.563Z,2.00
2023-01-17T20:39:12.233Z,2.60
2023-01-17T20:41:41.751Z,2.00
2023-01-17T20:44:13.936Z,1.90
2023-01-17T20:46:44.043Z,1.90
2023-01-17T20:49:14.692Z,2.00
2023-01-17T20:51:44.237Z,1.90
2023-01-17T20:54:14.926Z,1.90
2023-01-17T20:56:43.703Z,2.20
2023-01-17T20:59:15.236Z,1.90
2023-01-17T21:01:45.196Z,1.90
2023-01-17T21:04:14.640Z,1.90
2023-01-17T21:06:43.912Z,1.80
2023-01-17T21:09:13.964Z,1.80
2023-01-17T21:11:41.971Z,1.80
2023-01-17T21:14:10.183Z,1.80
2023-01-17T21:16:38.234Z,1.80
2023-01-17T21:19:11.742Z,1.80
2023-01-17T21:21:39.729Z,1.80
2023-01-17T21:24:07.978Z,1.80
2023-01-17T21:26:38.689Z,1.80
2023-01-17T21:29:07.087Z,1.70
2023-01-17T21:31:36.666Z,1.70
2023-01-17T21:34:07.870Z,1.70
2023-01-17T21:36:38.948Z,2.00
2023-01-17T21:39:08.697Z,1.70
2023-01-17T21:41:38.717Z,1.70
2023-01-17T21:44:10.002Z,1.70
2023-01-17T21:46:39.603Z,1.70
2023-01-17T21:49:11.922Z,1.80
2023-01-17T21:52:00.597Z,1.80
2023-01-17T21:54:47.339Z,1.80
2023-01-17T21:57:36.936Z,1.80
2023-01-17T22:00:06.588Z,1.80
2023-01-17T22:02:39.778Z,1.80
2023-01-17T22:05:10.971Z,1.90
2023-01-17T22:07:40.329Z,1.80
2023-01-17T22:10:09.169Z,1.80
2023-01-17T22:12:37.215Z,1.80
2023-01-17T22:15:06.025Z,1.80
2023-01-17T22:17:33.997Z,1.80
2023-01-17T22:20:01.988Z,1.70
2023-01-17T22:22:34.223Z,1.70
2023-01-17T22:25:03.059Z,1.70
2023-01-17T22:27:31.265Z,1.70
2023-01-17T22:29:59.252Z,1.70
2023-01-17T22:32:27.285Z,1.70
2023-01-17T22:34:55.194Z,1.60
2023-01-17T22:37:23.601Z,1.60
2023-01-17T22:39:52.997Z,1.60
2023-01-17T22:42:21.027Z,1.60
2023-01-17T22:44:49.279Z,1.60
2023-01-17T22:47:17.301Z,1.60
2023-01-17T22:49:45.412Z,1.60
2023-01-17T22:52:13.478Z,2.40
2023-01-17T22:54:41.466Z,2.30
2023-01-17T22:57:10.971Z,1.50
2023-01-17T22:59:38.921Z,1.50
2023-01-17T23:02:06.973Z,1.50
2023-01-17T23:04:34.944Z,1.50
2023-01-17T23:07:03.089Z,1.50
2023-01-17T23:09:31.056Z,1.50
2023-01-17T23:11:59.080Z,1.50
2023-01-17T23:14:30.747Z,1.40
2023-01-17T23:17:18.349Z,1.50
2023-01-17T23:19:47.723Z,1.50
2023-01-17T23:22:19.426Z,1.40
2023-01-17T23:24:50.693Z,2.60
2023-01-17T23:27:39.582Z,1.40
2023-01-17T23:30:11.825Z,1.40
2023-01-17T23:32:40.498Z,1.40
2023-01-17T23:35:08.881Z,1.40
2023-01-17T23:37:54.991Z,1.40
2023-01-17T23:40:23.143Z,2.00
2023-01-17T23:43:08.422Z,1.40
2023-01-17T23:45:38.760Z,1.40
2023-01-17T23:48:09.738Z,1.40
2023-01-17T23:50:38.353Z,1.40
2023-01-17T23:53:07.950Z,1.40
2023-01-17T23:55:37.199Z,1.40
2023-01-17T23:58:05.620Z,1.40
